Somerset, Maryland
Current Conditions -  °F | °C
As of 7:40 PM on Monday 24 Nov 2014 (Local Time) from KCGS Reporting Station
Clear Clear  
Wind Chill: 68°   Ceiling: Unl
Heat Index: 68°   Visibility: 10mi
Dew Point: 54°   Wind: 6mph
Humidity: 60%   Direction: 190°S
Pressure: 29.7"   Gusts: NA
Location:  38.9825°N, 77.0796°W
Report Text: KCGS 250040Z AUTO 19005KT 10SM CLR 20/12 A2970 RMK AO1
Loading
Personal Weather Stations






























Interactive Weather Map New forecast layout! Learn more

10-Day Weather Forecast

Advertisements
Track Severe Weather on mobile